createdAt,value
2022-11-09T00:00:48.505Z,28.48
2022-11-09T00:03:16.809Z,27.75
2022-11-09T00:05:44.000Z,25.42
2022-11-09T00:08:12.703Z,26.10
2022-11-09T00:10:40.213Z,25.65
2022-11-09T00:13:07.072Z,25.63
2022-11-09T00:15:34.133Z,24.67
2022-11-09T00:18:03.439Z,24.10
2022-11-09T00:20:30.606Z,24.75
2022-11-09T00:22:59.495Z,23.88
2022-11-09T00:25:26.259Z,25.45
2022-11-09T00:27:53.365Z,22.65
2022-11-09T00:30:20.476Z,23.70
2022-11-09T00:32:50.243Z,22.15
2022-11-09T00:35:17.140Z,22.25
2022-11-09T00:37:44.070Z,23.02
2022-11-09T00:40:11.479Z,28.75
2022-11-09T00:42:38.180Z,28.08
2022-11-09T00:45:05.610Z,29.67
2022-11-09T00:47:32.469Z,27.33
2022-11-09T00:49:59.766Z,28.80
2022-11-09T00:52:26.485Z,26.15
2022-11-09T00:54:53.184Z,27.48
2022-11-09T00:57:20.253Z,27.58
2022-11-09T00:59:47.064Z,30.48
2022-11-09T01:02:13.977Z,30.65
2022-11-09T01:04:40.669Z,28.92
2022-11-09T01:07:08.402Z,30.17
2022-11-09T01:09:35.155Z,29.92
2022-11-09T01:12:01.909Z,32.47
2022-11-09T01:14:28.831Z,29.85
2022-11-09T01:16:55.601Z,30.67
2022-11-09T01:19:22.309Z,31.00
2022-11-09T01:21:49.200Z,29.77
2022-11-09T01:24:15.982Z,28.05
2022-11-09T01:26:42.677Z,27.55
2022-11-09T01:29:09.553Z,27.75
2022-11-09T01:31:36.349Z,25.40
2022-11-09T01:34:03.144Z,26.55
2022-11-09T01:36:30.193Z,26.92
2022-11-09T01:38:56.950Z,24.90
2022-11-09T01:41:28.643Z,27.95
2022-11-09T01:44:16.955Z,27.23
2022-11-09T01:46:43.709Z,29.17
2022-11-09T01:49:34.481Z,28.27
2022-11-09T01:54:46.824Z,26.38
2022-11-09T01:57:24.382Z,25.48
2022-11-09T01:59:59.331Z,25.42
2022-11-09T02:02:26.161Z,23.95
2022-11-09T02:04:58.335Z,24.48
2022-11-09T02:07:25.621Z,24.88
2022-11-09T02:10:02.944Z,25.67
2022-11-09T02:12:34.235Z,24.35
2022-11-09T02:15:04.744Z,26.48
2022-11-09T02:17:31.607Z,26.40
2022-11-09T02:19:59.130Z,24.20
2022-11-09T02:22:26.273Z,27.02
2022-11-09T02:24:56.264Z,25.92
2022-11-09T02:27:24.299Z,24.52
2022-11-09T02:29:51.839Z,26.17
2022-11-09T02:32:22.752Z,24.75
2022-11-09T02:34:49.685Z,24.23
2022-11-09T02:37:37.655Z,24.33
2022-11-09T02:40:09.652Z,24.17
2022-11-09T02:42:36.396Z,23.33
2022-11-09T02:45:03.362Z,24.27
2022-11-09T02:47:30.133Z,24.92
2022-11-09T02:49:58.093Z,25.25
2022-11-09T02:52:25.462Z,25.40
2022-11-09T02:54:52.225Z,25.35
2022-11-09T02:57:19.262Z,23.60
2022-11-09T02:59:45.934Z,23.80
2022-11-09T03:02:12.666Z,22.92
2022-11-09T03:04:39.628Z,22.25
2022-11-09T03:07:08.313Z,22.33
2022-11-09T03:09:35.069Z,20.52
2022-11-09T03:12:21.862Z,21.90
2022-11-09T03:14:48.569Z,21.77
2022-11-09T03:17:16.826Z,21.00
2022-11-09T03:19:43.752Z,22.95
2022-11-09T03:22:10.489Z,22.67
2022-11-09T03:24:37.353Z,24.10
2022-11-09T03:27:04.151Z,21.52
2022-11-09T03:29:31.090Z,21.13
2022-11-09T03:31:57.822Z,26.35
2022-11-09T03:34:24.555Z,23.80
2022-11-09T03:36:51.462Z,23.52
2022-11-09T03:39:18.139Z,29.10
2022-11-09T03:41:44.882Z,28.38
2022-11-09T03:44:11.759Z,34.92
2022-11-09T03:46:39.613Z,39.72
2022-11-09T03:49:06.433Z,34.15
2022-11-09T03:51:33.606Z,33.13
2022-11-09T03:54:01.930Z,33.05
2022-11-09T03:56:28.635Z,32.63
2022-11-09T03:58:55.518Z,31.70
2022-11-09T04:01:22.310Z,26.60
2022-11-09T04:03:49.003Z,25.13
2022-11-09T04:06:15.949Z,22.73
2022-11-09T04:08:47.028Z,38.85
2022-11-09T04:11:17.008Z,40.63
2022-11-09T04:13:43.758Z,40.00
2022-11-09T04:16:10.502Z,45.03
2022-11-09T04:18:37.380Z,42.75
2022-11-09T04:21:04.064Z,34.33
2022-11-09T04:23:30.771Z,28.13
2022-11-09T04:25:59.527Z,38.00
2022-11-09T04:28:26.701Z,23.42
2022-11-09T04:30:53.453Z,32.53
2022-11-09T04:33:20.774Z,31.50
2022-11-09T04:35:47.854Z,29.45
2022-11-09T04:38:14.888Z,27.25
2022-11-09T04:40:42.042Z,26.83
2022-11-09T04:43:13.130Z,25.55
2022-11-09T04:45:39.922Z,24.60
2022-11-09T04:48:08.107Z,25.42
2022-11-09T04:50:35.080Z,26.73
2022-11-09T04:53:12.697Z,26.10
2022-11-09T04:55:40.365Z,25.48
2022-11-09T04:58:07.558Z,25.77
2022-11-09T05:00:34.726Z,26.52
2022-11-09T05:03:05.942Z,28.45
2022-11-09T05:05:37.147Z,25.67
2022-11-09T05:08:04.705Z,28.38
2022-11-09T05:10:31.642Z,31.05
2022-11-09T05:13:06.851Z,32.33
2022-11-09T05:15:34.797Z,30.90
2022-11-09T05:18:02.156Z,30.67
2022-11-09T05:20:29.465Z,27.77
2022-11-09T05:23:16.736Z,27.17
2022-11-09T05:25:43.649Z,26.85
2022-11-09T05:28:10.871Z,27.30
2022-11-09T05:30:38.104Z,24.75
2022-11-09T05:33:05.224Z,19.83
2022-11-09T05:35:33.476Z,23.98
2022-11-09T05:38:00.387Z,22.83
2022-11-09T05:40:27.089Z,22.30
2022-11-09T05:42:56.172Z,23.85
2022-11-09T05:45:42.094Z,25.17
2022-11-09T05:48:10.768Z,24.90
2022-11-09T05:50:38.382Z,25.02
2022-11-09T05:53:05.473Z,24.55
2022-11-09T05:55:32.411Z,26.02
2022-11-09T05:57:59.204Z,26.02
2022-11-09T06:00:26.597Z,26.50
2022-11-09T06:02:53.663Z,26.20
2022-11-09T06:05:21.402Z,26.63
2022-11-09T06:07:48.095Z,27.25
2022-11-09T06:10:15.031Z,27.38
2022-11-09T06:12:41.705Z,29.25
2022-11-09T06:15:08.949Z,25.25
2022-11-09T06:17:35.834Z,26.48
2022-11-09T06:20:04.158Z,25.98
2022-11-09T06:22:31.060Z,27.23
2022-11-09T06:24:58.173Z,27.17
2022-11-09T06:27:24.929Z,27.92
2022-11-09T06:29:51.641Z,27.48
2022-11-09T06:32:18.581Z,28.08
2022-11-09T06:34:48.243Z,26.73
2022-11-09T06:37:17.754Z,26.93
2022-11-09T06:39:45.509Z,26.77
2022-11-09T06:42:12.236Z,30.52
2022-11-09T06:44:38.984Z,28.60
2022-11-09T06:47:05.793Z,27.85
2022-11-09T06:49:32.484Z,26.45
2022-11-09T06:51:59.189Z,24.02
2022-11-09T06:54:26.133Z,24.88
2022-11-09T06:56:55.061Z,23.35
2022-11-09T06:59:22.312Z,24.15
2022-11-09T07:01:49.792Z,25.73
2022-11-09T07:04:16.829Z,24.08
2022-11-09T07:06:43.640Z,26.40
2022-11-09T07:09:12.603Z,26.58
2022-11-09T07:11:39.503Z,26.20
2022-11-09T07:14:06.271Z,26.52
2022-11-09T07:16:33.937Z,25.77
2022-11-09T07:19:00.692Z,25.95
2022-11-09T07:21:27.624Z,25.63
2022-11-09T07:23:54.406Z,22.73
2022-11-09T07:26:21.158Z,20.70
2022-11-09T07:28:47.992Z,19.98
2022-11-09T07:31:14.782Z,17.80
2022-11-09T07:33:41.824Z,19.88
2022-11-09T07:36:09.534Z,18.63
2022-11-09T07:38:36.225Z,17.48
2022-11-09T07:41:03.325Z,15.70
2022-11-09T07:43:30.116Z,16.80
2022-11-09T07:45:57.438Z,16.52
2022-11-09T07:48:24.165Z,16.27
2022-11-09T07:50:50.982Z,16.23
2022-11-09T07:53:18.680Z,14.77
2022-11-09T07:55:45.714Z,15.98
2022-11-09T07:58:15.656Z,15.05
2022-11-09T08:00:44.035Z,15.13
2022-11-09T08:03:11.141Z,14.48
2022-11-09T08:05:39.096Z,14.35
2022-11-09T08:08:10.600Z,14.73
2022-11-09T08:10:38.097Z,14.13
2022-11-09T08:13:11.284Z,14.45
2022-11-09T08:15:39.075Z,15.20
2022-11-09T08:18:10.353Z,14.25
2022-11-09T08:20:37.324Z,16.52
2022-11-09T08:23:04.953Z,14.98
2022-11-09T08:25:35.863Z,12.90
2022-11-09T08:28:03.734Z,12.95
2022-11-09T08:30:30.664Z,12.55
2022-11-09T08:32:59.296Z,13.68
2022-11-09T08:35:27.819Z,12.55
2022-11-09T08:37:55.022Z,12.45
2022-11-09T08:40:26.815Z,13.35
2022-11-09T08:42:53.946Z,12.55
2022-11-09T08:45:21.044Z,14.35
2022-11-09T08:47:48.350Z,13.57
2022-11-09T08:50:16.022Z,15.43
2022-11-09T08:52:42.788Z,12.15
2022-11-09T08:55:10.459Z,12.27
2022-11-09T08:57:37.270Z,16.67
2022-11-09T09:00:05.044Z,17.55
2022-11-09T09:02:31.882Z,17.63
2022-11-09T09:04:58.571Z,13.68
2022-11-09T09:07:25.638Z,12.52
2022-11-09T09:09:52.542Z,12.98
2022-11-09T09:12:19.292Z,12.30
2022-11-09T09:14:46.087Z,13.20
2022-11-09T09:17:13.061Z,12.65
2022-11-09T09:19:39.831Z,12.75
2022-11-09T09:22:06.995Z,13.13
2022-11-09T09:24:34.055Z,15.57
2022-11-09T09:27:03.908Z,14.68
2022-11-09T09:29:31.880Z,13.75
2022-11-09T09:31:58.707Z,13.63
2022-11-09T09:34:26.263Z,13.10
2022-11-09T09:36:53.813Z,12.73
2022-11-09T09:39:21.016Z,13.32
2022-11-09T09:41:53.464Z,12.85
2022-11-09T09:44:33.478Z,12.05
2022-11-09T09:47:14.516Z,12.50
2022-11-09T09:50:00.422Z,11.68
2022-11-09T09:53:04.771Z,11.63
2022-11-09T09:55:39.053Z,11.00
2022-11-09T09:58:23.869Z,10.93
2022-11-09T10:00:55.156Z,11.93
2022-11-09T10:03:22.035Z,10.52
2022-11-09T10:06:07.229Z,10.05
2022-11-09T10:09:06.086Z,9.75
2022-11-09T10:11:47.298Z,11.45
2022-11-09T10:14:47.725Z,10.93
2022-11-09T10:17:40.785Z,11.13
2022-11-09T10:20:33.370Z,11.20
2022-11-09T10:23:30.513Z,10.93
2022-11-09T10:26:18.034Z,14.52
2022-11-09T10:29:14.632Z,12.45
2022-11-09T10:31:36.528Z,13.38
2022-11-09T10:34:28.936Z,12.20
2022-11-09T10:37:13.361Z,10.35
2022-11-09T10:39:51.419Z,11.77
2022-11-09T10:42:18.313Z,11.32
2022-11-09T10:44:44.979Z,10.93
2022-11-09T10:47:14.759Z,11.27
2022-11-09T10:49:41.770Z,11.32
2022-11-09T10:52:47.357Z,12.75
2022-11-09T10:55:27.707Z,10.82
2022-11-09T10:58:22.173Z,11.20
2022-11-09T11:01:04.987Z,9.88
2022-11-09T11:03:35.682Z,10.75
2022-11-09T11:06:05.744Z,9.85
2022-11-09T11:08:36.477Z,10.32
2022-11-09T11:11:39.388Z,10.35
2022-11-09T11:14:18.419Z,11.27
2022-11-09T11:16:48.949Z,10.15
2022-11-09T11:19:34.890Z,10.80
2022-11-09T11:22:19.421Z,9.60
2022-11-09T11:25:01.713Z,8.68
2022-11-09T11:27:31.384Z,9.88
2022-11-09T11:30:11.024Z,10.13
2022-11-09T11:32:38.150Z,10.13
2022-11-09T11:35:13.390Z,10.50
2022-11-09T11:38:07.662Z,10.23
2022-11-09T11:40:40.555Z,9.38
2022-11-09T11:43:22.466Z,10.32
2022-11-09T11:46:05.570Z,9.13
2022-11-09T11:48:55.653Z,10.10
2022-11-09T11:51:46.155Z,9.82
2022-11-09T11:57:04.721Z,10.88
2022-11-09T11:59:56.710Z,10.32
2022-11-09T12:02:42.166Z,9.32
2022-11-09T12:05:30.021Z,9.45
2022-11-09T12:08:16.390Z,9.93
2022-11-09T12:11:00.005Z,9.73
2022-11-09T12:13:49.945Z,8.30
2022-11-09T12:16:41.615Z,8.98
2022-11-09T12:19:26.620Z,10.43
2022-11-09T12:22:13.252Z,8.73
2022-11-09T12:25:32.408Z,9.13
2022-11-09T12:28:24.200Z,7.78
2022-11-09T12:31:42.547Z,8.15
2022-11-09T12:34:48.461Z,9.20
2022-11-09T12:37:23.160Z,9.20
2022-11-09T12:39:54.920Z,12.65
2022-11-09T12:42:39.136Z,10.73
2022-11-09T12:45:25.991Z,9.60
2022-11-09T12:47:54.739Z,10.88
2022-11-09T12:50:25.597Z,13.65
2022-11-09T12:52:53.608Z,11.25
2022-11-09T12:55:41.967Z,9.75
2022-11-09T12:58:22.928Z,14.63
2022-11-09T13:00:53.179Z,11.13
2022-11-09T13:03:23.754Z,10.73
2022-11-09T13:06:17.326Z,10.65
2022-11-09T13:09:18.453Z,14.05
2022-11-09T13:11:51.439Z,12.48
2022-11-09T13:14:29.444Z,9.15
2022-11-09T13:17:25.152Z,9.32
2022-11-09T13:19:54.574Z,9.55
2022-11-09T13:22:21.388Z,9.23
2022-11-09T13:24:51.095Z,8.57
2022-11-09T13:27:37.487Z,9.02
2022-11-09T13:30:28.375Z,9.00
2022-11-09T13:33:07.120Z,9.13
2022-11-09T13:35:43.116Z,8.55
2022-11-09T13:38:16.974Z,9.07
2022-11-09T13:40:51.311Z,8.50
2022-11-09T13:43:30.557Z,8.88
2022-11-09T13:46:02.835Z,9.10
2022-11-09T13:48:43.157Z,12.20
2022-11-09T13:51:12.834Z,11.65
2022-11-09T13:53:39.475Z,10.65
2022-11-09T13:56:37.538Z,10.23
2022-11-09T13:59:21.020Z,9.35
2022-11-09T14:01:55.096Z,10.30
2022-11-09T14:04:30.415Z,9.15
2022-11-09T14:07:27.788Z,9.35
2022-11-09T14:10:12.463Z,11.30
2022-11-09T14:12:52.636Z,17.33
2022-11-09T14:15:40.222Z,16.48
2022-11-09T14:18:40.418Z,15.20
2022-11-09T14:21:35.373Z,14.13
2022-11-09T14:24:11.014Z,14.65
2022-11-09T14:26:37.696Z,14.35
2022-11-09T14:29:24.797Z,15.75
2022-11-09T14:31:51.491Z,13.38
2022-11-09T14:34:18.807Z,13.13
2022-11-09T14:36:45.507Z,14.07
2022-11-09T14:39:27.847Z,14.32
2022-11-09T14:41:55.390Z,12.88
2022-11-09T14:44:32.678Z,11.93
2022-11-09T14:47:00.485Z,12.15
2022-11-09T14:49:28.728Z,12.07
2022-11-09T14:51:55.758Z,11.73
2022-11-09T14:54:26.124Z,11.15
2022-11-09T14:56:54.887Z,13.93
2022-11-09T14:59:36.375Z,14.20
2022-11-09T15:02:05.226Z,12.27
2022-11-09T15:04:58.446Z,11.60
2022-11-09T15:07:34.459Z,12.30
2022-11-09T15:10:06.236Z,12.45
2022-11-09T15:12:33.737Z,12.32
2022-11-09T15:15:06.097Z,12.98
2022-11-09T15:17:36.008Z,12.23
2022-11-09T15:20:25.392Z,13.25
2022-11-09T15:23:05.845Z,12.75
2022-11-09T15:25:41.477Z,13.27
2022-11-09T15:28:16.500Z,13.82
2022-11-09T15:30:47.191Z,14.57
2022-11-09T15:33:20.051Z,14.65
2022-11-09T15:35:50.834Z,15.48
2022-11-09T15:38:33.917Z,15.15
2022-11-09T15:41:01.578Z,15.38
2022-11-09T15:43:28.716Z,17.63
2022-11-09T15:45:57.289Z,21.42
2022-11-09T15:48:24.312Z,22.40
2022-11-09T15:50:51.095Z,25.27
2022-11-09T15:53:17.787Z,25.83
2022-11-09T15:55:44.704Z,28.95
2022-11-09T15:58:15.956Z,28.38
2022-11-09T16:00:43.501Z,28.75
2022-11-09T16:03:10.961Z,28.88
2022-11-09T16:05:38.114Z,28.95
2022-11-09T16:08:07.575Z,29.02
2022-11-09T16:10:37.895Z,33.47
2022-11-09T16:13:06.475Z,32.80
2022-11-09T16:15:35.285Z,34.53
2022-11-09T16:18:02.171Z,35.15
2022-11-09T16:20:29.777Z,38.17
2022-11-09T16:22:57.080Z,41.28
2022-11-09T16:25:23.797Z,53.45
2022-11-09T16:27:51.376Z,42.88
2022-11-09T16:30:19.440Z,42.95
2022-11-09T16:32:46.284Z,43.42
2022-11-09T16:35:29.017Z,46.92
2022-11-09T16:37:57.490Z,51.13
2022-11-09T16:40:24.390Z,51.90
2022-11-09T16:42:52.312Z,57.83
2022-11-09T16:45:19.510Z,58.88
2022-11-09T16:47:50.899Z,65.18
2022-11-09T16:50:20.231Z,64.97
2022-11-09T16:52:46.954Z,69.63
2022-11-09T16:55:13.634Z,63.03
2022-11-09T16:57:40.787Z,59.70
2022-11-09T17:00:08.829Z,63.40
2022-11-09T17:02:35.733Z,63.40
2022-11-09T17:05:02.884Z,61.15
2022-11-09T17:07:29.700Z,67.78
2022-11-09T17:09:56.580Z,65.57
2022-11-09T17:12:23.337Z,75.53
2022-11-09T17:14:50.142Z,79.13
2022-11-09T17:17:22.265Z,83.45
2022-11-09T17:19:50.752Z,81.93
2022-11-09T17:22:17.751Z,76.25
2022-11-09T17:24:44.635Z,61.97
2022-11-09T17:27:12.421Z,67.75
2022-11-09T17:29:40.436Z,64.43
2022-11-09T17:32:09.318Z,61.35
2022-11-09T17:34:36.013Z,58.78
2022-11-09T17:37:04.572Z,60.17
2022-11-09T17:39:32.850Z,57.40
2022-11-09T17:41:59.810Z,58.92
2022-11-09T17:44:26.515Z,57.95
2022-11-09T17:46:53.434Z,55.25
2022-11-09T17:49:20.378Z,55.60
2022-11-09T17:51:47.116Z,53.80
2022-11-09T17:54:15.185Z,56.35
2022-11-09T17:56:42.874Z,58.13
2022-11-09T17:59:09.894Z,59.70
2022-11-09T18:01:41.427Z,61.17
2022-11-09T18:04:10.437Z,65.05
2022-11-09T18:06:38.334Z,61.50
2022-11-09T18:11:53.092Z,67.25
2022-11-09T18:14:20.043Z,65.55
2022-11-09T18:16:47.891Z,60.75
2022-11-09T18:19:14.631Z,58.88
2022-11-09T18:21:41.603Z,59.20
2022-11-09T18:24:08.649Z,64.50
2022-11-09T18:26:35.352Z,58.85
2022-11-09T18:29:02.110Z,54.83
2022-11-09T18:31:29.010Z,48.30
2022-11-09T18:33:55.697Z,47.50
2022-11-09T18:36:23.539Z,40.65
2022-11-09T18:38:51.981Z,35.88
2022-11-09T18:41:22.085Z,39.15
2022-11-09T18:43:50.078Z,34.70
2022-11-09T18:46:18.730Z,38.78
2022-11-09T18:48:49.637Z,33.45
2022-11-09T18:51:16.423Z,31.75
2022-11-09T18:53:45.317Z,31.95
2022-11-09T18:56:24.761Z,35.20
2022-11-09T18:58:54.896Z,36.45
2022-11-09T19:01:24.181Z,39.08
2022-11-09T19:03:56.369Z,34.95
2022-11-09T19:06:24.863Z,39.20
2022-11-09T19:09:10.731Z,38.30
2022-11-09T19:11:37.518Z,39.95
2022-11-09T19:14:04.485Z,39.92
2022-11-09T19:16:31.542Z,38.67
2022-11-09T19:18:58.335Z,41.22
2022-11-09T19:21:56.364Z,36.83
2022-11-09T19:24:26.033Z,39.83
2022-11-09T19:26:54.584Z,41.40
2022-11-09T19:29:21.709Z,41.70
2022-11-09T19:31:48.771Z,40.97
2022-11-09T19:34:20.550Z,39.38
2022-11-09T19:36:47.789Z,40.25
2022-11-09T19:39:15.556Z,37.38
2022-11-09T19:41:42.656Z,38.70
2022-11-09T19:44:13.146Z,39.33
2022-11-09T19:49:07.326Z,40.63
2022-11-09T19:51:34.921Z,42.40
2022-11-09T19:54:03.949Z,37.25
2022-11-09T19:56:32.092Z,41.03
2022-11-09T19:59:01.870Z,46.15
2022-11-09T20:01:30.719Z,55.20
2022-11-09T20:03:59.540Z,64.18
2022-11-09T20:06:27.548Z,63.00
2022-11-09T20:08:54.260Z,63.42
2022-11-09T20:11:41.920Z,60.08
2022-11-09T20:14:09.899Z,63.90
2022-11-09T20:16:37.490Z,63.65
2022-11-09T20:19:06.680Z,60.92
2022-11-09T20:21:33.419Z,60.17
2022-11-09T20:24:00.120Z,58.13
2022-11-09T20:26:27.020Z,58.63
2022-11-09T20:28:54.946Z,65.30
2022-11-09T20:31:23.420Z,60.05
2022-11-09T20:33:50.807Z,62.28
2022-11-09T20:36:18.892Z,59.22
2022-11-09T20:38:46.726Z,61.53
2022-11-09T20:41:14.184Z,59.20
2022-11-09T20:43:41.168Z,58.38
2022-11-09T20:46:16.988Z,55.97
2022-11-09T20:48:54.079Z,55.75
2022-11-09T20:51:22.621Z,58.47
2022-11-09T20:53:50.542Z,58.42
2022-11-09T20:56:18.873Z,58.40
2022-11-09T20:58:45.713Z,59.17
2022-11-09T21:01:18.803Z,59.03
2022-11-09T21:03:46.191Z,58.13
2022-11-09T21:06:15.329Z,59.63
2022-11-09T21:08:52.738Z,58.42
2022-11-09T21:11:20.462Z,57.50
2022-11-09T21:13:51.829Z,56.88
2022-11-09T21:16:20.801Z,56.40
2022-11-09T21:18:48.261Z,53.60
2022-11-09T21:21:20.469Z,51.67
2022-11-09T21:24:06.145Z,56.33
2022-11-09T21:26:51.754Z,56.50
2022-11-09T21:29:39.963Z,55.30
2022-11-09T21:32:07.714Z,58.38
2022-11-09T21:34:37.026Z,62.90
2022-11-09T21:37:05.299Z,55.22
2022-11-09T21:39:32.471Z,57.17
2022-11-09T21:41:59.346Z,57.70
2022-11-09T21:44:29.047Z,60.25
2022-11-09T21:46:56.451Z,64.63
2022-11-09T21:49:24.189Z,64.45
2022-11-09T21:51:51.258Z,65.45
2022-11-09T21:54:20.095Z,65.57
2022-11-09T21:56:53.728Z,63.22
2022-11-09T21:59:20.559Z,76.55
2022-11-09T22:01:47.989Z,74.03
2022-11-09T22:04:15.470Z,69.18
2022-11-09T22:06:43.490Z,70.97
2022-11-09T22:09:16.165Z,72.40
2022-11-09T22:12:03.598Z,73.43
2022-11-09T22:14:50.125Z,74.10
2022-11-09T22:17:16.941Z,75.13
2022-11-09T22:20:02.302Z,75.65
2022-11-09T22:22:30.671Z,82.63
2022-11-09T22:24:58.148Z,82.45
2022-11-09T22:27:25.272Z,80.93
2022-11-09T22:29:52.952Z,81.65
2022-11-09T22:32:24.397Z,81.90
2022-11-09T22:34:54.093Z,83.05
2022-11-09T22:37:21.001Z,80.87
2022-11-09T22:39:48.708Z,79.57
2022-11-09T22:42:18.440Z,75.47
2022-11-09T22:44:45.238Z,76.10
2022-11-09T22:47:13.375Z,77.00
2022-11-09T22:49:45.268Z,76.05
2022-11-09T22:52:12.500Z,71.15
2022-11-09T22:54:39.287Z,68.50
2022-11-09T22:57:06.367Z,67.28
2022-11-09T22:59:35.365Z,60.67
2022-11-09T23:02:02.711Z,62.78
2022-11-09T23:05:32.621Z,65.55
2022-11-09T23:08:02.117Z,70.00
2022-11-09T23:10:31.484Z,74.82
2022-11-09T23:13:02.082Z,71.32
2022-11-09T23:18:16.859Z,71.38
2022-11-09T23:20:47.580Z,74.43
2022-11-09T23:23:14.541Z,71.88
2022-11-09T23:25:57.033Z,76.22
2022-11-09T23:28:25.301Z,77.13
2022-11-09T23:30:55.319Z,69.88
2022-11-09T23:33:22.550Z,65.03
2022-11-09T23:35:49.680Z,66.32
2022-11-09T23:38:16.389Z,63.38
2022-11-09T23:40:43.395Z,70.43
2022-11-09T23:43:12.060Z,65.55
2022-11-09T23:45:40.432Z,62.58
2022-11-09T23:48:10.789Z,59.55
2022-11-09T23:50:37.475Z,57.40
2022-11-09T23:53:04.483Z,57.92
2022-11-09T23:55:31.263Z,62.03
2022-11-09T23:58:02.010Z,55.88
